sensor_id;sensor_type;location;lat;lon;timestamp;temperature;humidity
4314;DHT22;2170;48.794;9.182;2023-09-08T00:02:05;18.40;99.90
4314;DHT22;2170;48.794;9.182;2023-09-08T00:04:50;18.30;99.90
4314;DHT22;2170;48.794;9.182;2023-09-08T00:07:38;18.30;99.90
4314;DHT22;2170;48.794;9.182;2023-09-08T00:10:14;18.30;99.90
4314;DHT22;2170;48.794;9.182;2023-09-08T00:12:54;18.20;99.90
4314;DHT22;2170;48.794;9.182;2023-09-08T00:15:39;18.20;99.90
4314;DHT22;2170;48.794;9.182;2023-09-08T00:18:17;18.10;99.90
4314;DHT22;2170;48.794;9.182;2023-09-08T00:20:53;18.10;99.90
4314;DHT22;2170;48.794;9.182;2023-09-08T00:23:38;18.00;99.90
4314;DHT22;2170;48.794;9.182;2023-09-08T00:26:25;17.90;99.90
4314;DHT22;2170;48.794;9.182;2023-09-08T00:29:05;17.80;99.90
4314;DHT22;2170;48.794;9.182;2023-09-08T00:31:42;17.70;99.90
4314;DHT22;2170;48.794;9.182;2023-09-08T00:34:34;17.70;99.90
4314;DHT22;2170;48.794;9.182;2023-09-08T00:37:08;17.70;99.90
4314;DHT22;2170;48.794;9.182;2023-09-08T00:39:38;17.70;99.90
4314;DHT22;2170;48.794;9.182;2023-09-08T00:42:12;17.70;99.90
4314;DHT22;2170;48.794;9.182;2023-09-08T00:44:42;17.70;99.90
4314;DHT22;2170;48.794;9.182;2023-09-08T00:47:20;17.60;99.90
4314;DHT22;2170;48.794;9.182;2023-09-08T00:49:51;17.50;99.90
4314;DHT22;2170;48.794;9.182;2023-09-08T00:52:41;17.50;99.90
4314;DHT22;2170;48.794;9.182;2023-09-08T00:55:17;17.50;99.90
4314;DHT22;2170;48.794;9.182;2023-09-08T00:58:07;17.50;99.90
4314;DHT22;2170;48.794;9.182;2023-09-08T01:00:45;17.50;99.90
4314;DHT22;2170;48.794;9.182;2023-09-08T01:03:41;17.40;99.90
4314;DHT22;2170;48.794;9.182;2023-09-08T01:06:13;17.40;99.90
4314;DHT22;2170;48.794;9.182;2023-09-08T01:08:47;17.40;99.90
4314;DHT22;2170;48.794;9.182;2023-09-08T01:11:24;17.30;99.90
4314;DHT22;2170;48.794;9.182;2023-09-08T01:13:55;17.30;99.90
4314;DHT22;2170;48.794;9.182;2023-09-08T01:16:49;17.40;99.90
4314;DHT22;2170;48.794;9.182;2023-09-08T01:19:41;17.40;99.90
4314;DHT22;2170;48.794;9.182;2023-09-08T01:22:40;17.20;99.90
4314;DHT22;2170;48.794;9.182;2023-09-08T01:25:27;17.20;99.90
4314;DHT22;2170;48.794;9.182;2023-09-08T01:28:08;17.50;99.90
4314;DHT22;2170;48.794;9.182;2023-09-08T01:30:51;17.20;99.90
4314;DHT22;2170;48.794;9.182;2023-09-08T01:33:27;17.10;99.90
4314;DHT22;2170;48.794;9.182;2023-09-08T01:36:06;17.10;99.90
4314;DHT22;2170;48.794;9.182;2023-09-08T01:38:39;17.10;99.90
4314;DHT22;2170;48.794;9.182;2023-09-08T01:41:17;17.00;99.90
4314;DHT22;2170;48.794;9.182;2023-09-08T01:44:00;16.90;99.90
4314;DHT22;2170;48.794;9.182;2023-09-08T01:46:43;16.90;99.90
4314;DHT22;2170;48.794;9.182;2023-09-08T01:49:18;16.80;99.90
4314;DHT22;2170;48.794;9.182;2023-09-08T01:51:55;16.90;99.90
4314;DHT22;2170;48.794;9.182;2023-09-08T01:54:33;16.80;99.90
4314;DHT22;2170;48.794;9.182;2023-09-08T01:57:13;16.70;99.90
4314;DHT22;2170;48.794;9.182;2023-09-08T01:59:58;16.70;99.90
4314;DHT22;2170;48.794;9.182;2023-09-08T02:02:44;16.70;99.90
4314;DHT22;2170;48.794;9.182;2023-09-08T02:05:21;16.60;99.90
4314;DHT22;2170;48.794;9.182;2023-09-08T02:07:53;16.60;99.90
4314;DHT22;2170;48.794;9.182;2023-09-08T02:10:47;16.60;99.90
4314;DHT22;2170;48.794;9.182;2023-09-08T02:13:30;16.60;99.90
4314;DHT22;2170;48.794;9.182;2023-09-08T02:16:20;16.60;99.90
4314;DHT22;2170;48.794;9.182;2023-09-08T02:19:06;16.60;99.90
4314;DHT22;2170;48.794;9.182;2023-09-08T02:21:39;16.60;99.90
4314;DHT22;2170;48.794;9.182;2023-09-08T02:24:24;16.50;99.90
4314;DHT22;2170;48.794;9.182;2023-09-08T02:27:01;16.50;99.90
4314;DHT22;2170;48.794;9.182;2023-09-08T02:29:37;16.50;99.90
4314;DHT22;2170;48.794;9.182;2023-09-08T02:32:14;16.50;99.90
4314;DHT22;2170;48.794;9.182;2023-09-08T02:34:51;16.40;99.90
4314;DHT22;2170;48.794;9.182;2023-09-08T02:37:30;16.30;99.90
4314;DHT22;2170;48.794;9.182;2023-09-08T02:40:07;16.20;99.90
4314;DHT22;2170;48.794;9.182;2023-09-08T02:42:49;16.20;99.90
4314;DHT22;2170;48.794;9.182;2023-09-08T02:45:54;16.20;99.90
4314;DHT22;2170;48.794;9.182;2023-09-08T02:48:30;16.20;99.90
4314;DHT22;2170;48.794;9.182;2023-09-08T02:51:01;16.20;99.90
4314;DHT22;2170;48.794;9.182;2023-09-08T02:53:34;16.20;99.90
4314;DHT22;2170;48.794;9.182;2023-09-08T02:56:24;16.20;99.90
4314;DHT22;2170;48.794;9.182;2023-09-08T02:59:26;16.10;99.90
4314;DHT22;2170;48.794;9.182;2023-09-08T03:02:02;16.10;99.90
4314;DHT22;2170;48.794;9.182;2023-09-08T03:04:38;16.10;99.90
4314;DHT22;2170;48.794;9.182;2023-09-08T03:07:10;16.00;99.90
4314;DHT22;2170;48.794;9.182;2023-09-08T03:09:52;16.00;99.90
4314;DHT22;2170;48.794;9.182;2023-09-08T03:15:25;16.00;99.90
4314;DHT22;2170;48.794;9.182;2023-09-08T03:18:02;15.90;99.90
4314;DHT22;2170;48.794;9.182;2023-09-08T03:20:42;15.90;99.90
4314;DHT22;2170;48.794;9.182;2023-09-08T03:23:23;15.90;99.90
4314;DHT22;2170;48.794;9.182;2023-09-08T03:26:10;15.80;99.90
4314;DHT22;2170;48.794;9.182;2023-09-08T03:28:42;15.80;99.90
4314;DHT22;2170;48.794;9.182;2023-09-08T03:31:17;15.80;99.90
4314;DHT22;2170;48.794;9.182;2023-09-08T03:33:49;15.80;99.90
4314;DHT22;2170;48.794;9.182;2023-09-08T03:36:24;15.80;99.90
4314;DHT22;2170;48.794;9.182;2023-09-08T03:38:59;15.80;99.90
4314;DHT22;2170;48.794;9.182;2023-09-08T03:41:28;15.70;99.90
4314;DHT22;2170;48.794;9.182;2023-09-08T03:44:02;15.70;99.90
4314;DHT22;2170;48.794;9.182;2023-09-08T03:46:50;15.70;99.90
4314;DHT22;2170;48.794;9.182;2023-09-08T03:49:39;15.70;99.90
4314;DHT22;2170;48.794;9.182;2023-09-08T03:52:18;15.60;99.90
4314;DHT22;2170;48.794;9.182;2023-09-08T03:54:47;15.60;99.90
4314;DHT22;2170;48.794;9.182;2023-09-08T03:57:28;15.60;99.90
4314;DHT22;2170;48.794;9.182;2023-09-08T03:59:57;15.50;99.90
4314;DHT22;2170;48.794;9.182;2023-09-08T04:02:39;15.50;99.90
4314;DHT22;2170;48.794;9.182;2023-09-08T04:05:10;15.50;99.90
4314;DHT22;2170;48.794;9.182;2023-09-08T04:07:42;15.50;99.90
4314;DHT22;2170;48.794;9.182;2023-09-08T04:10:14;15.50;99.90
4314;DHT22;2170;48.794;9.182;2023-09-08T04:12:49;15.50;99.90
4314;DHT22;2170;48.794;9.182;2023-09-08T04:15:24;15.40;99.90
4314;DHT22;2170;48.794;9.182;2023-09-08T04:18:01;15.40;99.90
4314;DHT22;2170;48.794;9.182;2023-09-08T04:20:43;15.40;99.90
4314;DHT22;2170;48.794;9.182;2023-09-08T04:23:23;15.40;99.90
4314;DHT22;2170;48.794;9.182;2023-09-08T04:26:13;15.20;99.90
4314;DHT22;2170;48.794;9.182;2023-09-08T04:28:46;15.20;99.90
4314;DHT22;2170;48.794;9.182;2023-09-08T04:31:24;15.20;99.90
4314;DHT22;2170;48.794;9.182;2023-09-08T04:33:58;15.20;99.90
4314;DHT22;2170;48.794;9.182;2023-09-08T04:37:10;15.30;99.90
4314;DHT22;2170;48.794;9.182;2023-09-08T04:39:27;15.20;99.90
4314;DHT22;2170;48.794;9.182;2023-09-08T04:42:19;15.20;99.90
4314;DHT22;2170;48.794;9.182;2023-09-08T04:45:03;15.20;99.90
4314;DHT22;2170;48.794;9.182;2023-09-08T04:47:36;15.20;99.90
4314;DHT22;2170;48.794;9.182;2023-09-08T04:50:11;15.20;99.90
4314;DHT22;2170;48.794;9.182;2023-09-08T04:52:51;15.20;99.90
4314;DHT22;2170;48.794;9.182;2023-09-08T04:55:27;15.30;99.90
4314;DHT22;2170;48.794;9.182;2023-09-08T04:58:03;15.30;99.90
4314;DHT22;2170;48.794;9.182;2023-09-08T05:00:51;15.40;99.90
4314;DHT22;2170;48.794;9.182;2023-09-08T05:03:26;15.40;99.90
4314;DHT22;2170;48.794;9.182;2023-09-08T05:06:02;15.40;99.90
4314;DHT22;2170;48.794;9.182;2023-09-08T05:08:36;15.50;99.90
4314;DHT22;2170;48.794;9.182;2023-09-08T05:11:26;15.50;99.90
4314;DHT22;2170;48.794;9.182;2023-09-08T05:14:01;15.50;99.90
4314;DHT22;2170;48.794;9.182;2023-09-08T05:16:48;15.50;99.90
4314;DHT22;2170;48.794;9.182;2023-09-08T05:19:29;15.50;99.90
4314;DHT22;2170;48.794;9.182;2023-09-08T05:25:25;15.60;99.90
4314;DHT22;2170;48.794;9.182;2023-09-08T05:28:11;15.60;99.90
4314;DHT22;2170;48.794;9.182;2023-09-08T05:31:07;15.60;99.90
4314;DHT22;2170;48.794;9.182;2023-09-08T05:33:56;15.60;99.90
4314;DHT22;2170;48.794;9.182;2023-09-08T05:40:09;15.80;99.90
4314;DHT22;2170;48.794;9.182;2023-09-08T05:43:17;15.70;99.90
4314;DHT22;2170;48.794;9.182;2023-09-08T05:46:11;15.70;99.90
4314;DHT22;2170;48.794;9.182;2023-09-08T05:48:45;15.90;99.90
4314;DHT22;2170;48.794;9.182;2023-09-08T05:51:32;15.90;99.90
4314;DHT22;2170;48.794;9.182;2023-09-08T05:54:07;16.00;99.90
4314;DHT22;2170;48.794;9.182;2023-09-08T05:56:41;15.90;99.90
4314;DHT22;2170;48.794;9.182;2023-09-08T05:59:15;16.20;99.90
4314;DHT22;2170;48.794;9.182;2023-09-08T06:02:02;16.30;99.90
4314;DHT22;2170;48.794;9.182;2023-09-08T06:04:35;16.40;99.90
4314;DHT22;2170;48.794;9.182;2023-09-08T06:07:15;16.50;99.90
4314;DHT22;2170;48.794;9.182;2023-09-08T06:10:11;16.60;99.90
4314;DHT22;2170;48.794;9.182;2023-09-08T06:12:48;16.70;99.90
4314;DHT22;2170;48.794;9.182;2023-09-08T06:15:36;16.80;99.90
4314;DHT22;2170;48.794;9.182;2023-09-08T06:18:12;16.70;99.90
4314;DHT22;2170;48.794;9.182;2023-09-08T06:20:55;16.90;99.90
4314;DHT22;2170;48.794;9.182;2023-09-08T06:23:55;16.90;99.90
4314;DHT22;2170;48.794;9.182;2023-09-08T06:26:29;17.10;99.90
4314;DHT22;2170;48.794;9.182;2023-09-08T06:29:20;17.20;99.90
4314;DHT22;2170;48.794;9.182;2023-09-08T06:32:00;17.10;99.90
4314;DHT22;2170;48.794;9.182;2023-09-08T06:34:38;17.20;99.90
4314;DHT22;2170;48.794;9.182;2023-09-08T06:37:16;17.20;99.90
4314;DHT22;2170;48.794;9.182;2023-09-08T06:39:55;17.40;99.90
4314;DHT22;2170;48.794;9.182;2023-09-08T06:42:35;17.40;99.90
4314;DHT22;2170;48.794;9.182;2023-09-08T06:45:07;17.40;99.90
4314;DHT22;2170;48.794;9.182;2023-09-08T06:47:40;17.50;99.90
4314;DHT22;2170;48.794;9.182;2023-09-08T06:50:22;17.60;99.90
4314;DHT22;2170;48.794;9.182;2023-09-08T06:53:03;17.60;99.90
4314;DHT22;2170;48.794;9.182;2023-09-08T06:55:37;17.70;99.90
4314;DHT22;2170;48.794;9.182;2023-09-08T06:58:21;17.70;99.90
4314;DHT22;2170;48.794;9.182;2023-09-08T07:01:03;17.80;99.90
4314;DHT22;2170;48.794;9.182;2023-09-08T07:03:50;17.90;99.90
4314;DHT22;2170;48.794;9.182;2023-09-08T07:06:43;17.90;99.90
4314;DHT22;2170;48.794;9.182;2023-09-08T07:09:24;18.10;99.90
4314;DHT22;2170;48.794;9.182;2023-09-08T07:11:59;18.00;99.90
4314;DHT22;2170;48.794;9.182;2023-09-08T07:14:36;18.30;99.90
4314;DHT22;2170;48.794;9.182;2023-09-08T07:17:32;18.30;99.90
4314;DHT22;2170;48.794;9.182;2023-09-08T07:20:23;18.40;99.90
4314;DHT22;2170;48.794;9.182;2023-09-08T07:23:00;18.50;99.90
4314;DHT22;2170;48.794;9.182;2023-09-08T07:25:51;18.50;99.90
4314;DHT22;2170;48.794;9.182;2023-09-08T07:28:39;18.60;99.90
4314;DHT22;2170;48.794;9.182;2023-09-08T07:31:39;18.60;99.90
4314;DHT22;2170;48.794;9.182;2023-09-08T07:34:28;18.90;99.90
4314;DHT22;2170;48.794;9.182;2023-09-08T07:37:09;19.00;99.90
4314;DHT22;2170;48.794;9.182;2023-09-08T07:39:44;19.20;99.90
4314;DHT22;2170;48.794;9.182;2023-09-08T07:42:46;19.30;99.90
4314;DHT22;2170;48.794;9.182;2023-09-08T07:45:23;19.50;99.90
4314;DHT22;2170;48.794;9.182;2023-09-08T07:47:57;19.60;99.90
4314;DHT22;2170;48.794;9.182;2023-09-08T07:50:30;19.70;99.90
4314;DHT22;2170;48.794;9.182;2023-09-08T07:53:03;20.00;99.90
4314;DHT22;2170;48.794;9.182;2023-09-08T07:55:37;20.10;99.90
4314;DHT22;2170;48.794;9.182;2023-09-08T07:58:15;20.30;99.90
4314;DHT22;2170;48.794;9.182;2023-09-08T08:00:46;20.30;99.90
4314;DHT22;2170;48.794;9.182;2023-09-08T08:03:29;20.50;99.90
4314;DHT22;2170;48.794;9.182;2023-09-08T08:06:11;20.60;99.90
4314;DHT22;2170;48.794;9.182;2023-09-08T08:08:43;20.90;99.90
4314;DHT22;2170;48.794;9.182;2023-09-08T08:11:17;21.10;99.90
4314;DHT22;2170;48.794;9.182;2023-09-08T08:13:50;21.20;99.90
4314;DHT22;2170;48.794;9.182;2023-09-08T08:16:29;21.50;99.90
4314;DHT22;2170;48.794;9.182;2023-09-08T08:19:04;21.60;99.90
4314;DHT22;2170;48.794;9.182;2023-09-08T08:21:43;21.90;99.90
4314;DHT22;2170;48.794;9.182;2023-09-08T08:24:26;22.10;99.90
4314;DHT22;2170;48.794;9.182;2023-09-08T08:27:29;22.40;99.90
4314;DHT22;2170;48.794;9.182;2023-09-08T08:30:09;22.60;99.90
4314;DHT22;2170;48.794;9.182;2023-09-08T08:32:49;22.80;99.90
4314;DHT22;2170;48.794;9.182;2023-09-08T08:35:35;23.00;99.90
4314;DHT22;2170;48.794;9.182;2023-09-08T08:38:12;23.10;99.90
4314;DHT22;2170;48.794;9.182;2023-09-08T08:40:46;23.40;99.90
4314;DHT22;2170;48.794;9.182;2023-09-08T08:43:38;23.40;99.90
4314;DHT22;2170;48.794;9.182;2023-09-08T08:46:12;23.70;99.90
4314;DHT22;2170;48.794;9.182;2023-09-08T08:48:49;23.90;99.90
4314;DHT22;2170;48.794;9.182;2023-09-08T08:51:27;24.20;99.90
4314;DHT22;2170;48.794;9.182;2023-09-08T08:54:08;24.30;99.90
4314;DHT22;2170;48.794;9.182;2023-09-08T08:57:00;24.70;99.90
4314;DHT22;2170;48.794;9.182;2023-09-08T08:59:32;24.90;99.90
4314;DHT22;2170;48.794;9.182;2023-09-08T09:02:02;25.20;99.90
4314;DHT22;2170;48.794;9.182;2023-09-08T09:04:31;25.30;99.90
4314;DHT22;2170;48.794;9.182;2023-09-08T09:07:08;25.40;99.90
4314;DHT22;2170;48.794;9.182;2023-09-08T09:09:45;25.50;99.90
4314;DHT22;2170;48.794;9.182;2023-09-08T09:12:16;25.70;99.90
4314;DHT22;2170;48.794;9.182;2023-09-08T09:14:46;25.70;99.90
4314;DHT22;2170;48.794;9.182;2023-09-08T09:17:15;26.20;99.90
4314;DHT22;2170;48.794;9.182;2023-09-08T09:19:49;26.50;99.90
4314;DHT22;2170;48.794;9.182;2023-09-08T09:22:21;26.40;99.90
4314;DHT22;2170;48.794;9.182;2023-09-08T09:24:57;26.50;99.90
4314;DHT22;2170;48.794;9.182;2023-09-08T09:27:34;26.70;99.90
4314;DHT22;2170;48.794;9.182;2023-09-08T09:30:09;27.00;99.90
4314;DHT22;2170;48.794;9.182;2023-09-08T09:32:43;27.10;99.90
4314;DHT22;2170;48.794;9.182;2023-09-08T09:35:20;27.10;99.90
4314;DHT22;2170;48.794;9.182;2023-09-08T09:37:54;27.40;99.90
4314;DHT22;2170;48.794;9.182;2023-09-08T09:40:28;27.70;99.90
4314;DHT22;2170;48.794;9.182;2023-09-08T09:43:04;27.50;99.90
4314;DHT22;2170;48.794;9.182;2023-09-08T09:45:40;27.70;99.90
4314;DHT22;2170;48.794;9.182;2023-09-08T09:48:13;27.70;99.90
4314;DHT22;2170;48.794;9.182;2023-09-08T09:50:46;27.80;99.90
4314;DHT22;2170;48.794;9.182;2023-09-08T09:53:20;28.40;99.90
4314;DHT22;2170;48.794;9.182;2023-09-08T09:55:51;28.60;99.90
4314;DHT22;2170;48.794;9.182;2023-09-08T09:58:30;28.90;99.90
4314;DHT22;2170;48.794;9.182;2023-09-08T10:01:01;29.20;99.90
4314;DHT22;2170;48.794;9.182;2023-09-08T10:03:32;29.00;99.90
4314;DHT22;2170;48.794;9.182;2023-09-08T10:06:09;29.20;99.90
4314;DHT22;2170;48.794;9.182;2023-09-08T10:08:40;29.60;99.90
4314;DHT22;2170;48.794;9.182;2023-09-08T10:11:13;29.80;99.90
4314;DHT22;2170;48.794;9.182;2023-09-08T10:13:58;30.00;99.90
4314;DHT22;2170;48.794;9.182;2023-09-08T10:16:40;30.20;99.90
4314;DHT22;2170;48.794;9.182;2023-09-08T10:19:21;30.40;99.90
4314;DHT22;2170;48.794;9.182;2023-09-08T10:21:51;30.10;99.90
4314;DHT22;2170;48.794;9.182;2023-09-08T10:24:27;30.30;99.90
4314;DHT22;2170;48.794;9.182;2023-09-08T10:27:11;30.40;99.90
4314;DHT22;2170;48.794;9.182;2023-09-08T10:29:48;30.50;99.90
4314;DHT22;2170;48.794;9.182;2023-09-08T10:32:25;30.90;99.90
4314;DHT22;2170;48.794;9.182;2023-09-08T10:35:04;31.00;99.90
4314;DHT22;2170;48.794;9.182;2023-09-08T10:37:48;31.00;99.90
4314;DHT22;2170;48.794;9.182;2023-09-08T10:40:28;31.20;99.90
4314;DHT22;2170;48.794;9.182;2023-09-08T10:43:19;30.90;99.90
4314;DHT22;2170;48.794;9.182;2023-09-08T10:45:56;31.40;99.90
4314;DHT22;2170;48.794;9.182;2023-09-08T10:48:49;31.80;99.90
4314;DHT22;2170;48.794;9.182;2023-09-08T10:51:53;32.10;99.90
4314;DHT22;2170;48.794;9.182;2023-09-08T10:54:47;32.00;99.90
4314;DHT22;2170;48.794;9.182;2023-09-08T10:57:24;31.50;99.90
4314;DHT22;2170;48.794;9.182;2023-09-08T11:00:02;31.80;99.90
4314;DHT22;2170;48.794;9.182;2023-09-08T11:03:03;32.10;99.90
4314;DHT22;2170;48.794;9.182;2023-09-08T11:05:42;31.60;99.90
4314;DHT22;2170;48.794;9.182;2023-09-08T11:09:16;31.20;99.90
4314;DHT22;2170;48.794;9.182;2023-09-08T11:11:48;31.40;99.90
4314;DHT22;2170;48.794;9.182;2023-09-08T11:17:48;32.90;99.90
4314;DHT22;2170;48.794;9.182;2023-09-08T11:20:37;33.20;99.90
4314;DHT22;2170;48.794;9.182;2023-09-08T11:24:23;33.50;99.90
4314;DHT22;2170;48.794;9.182;2023-09-08T11:26:15;33.40;99.90
4314;DHT22;2170;48.794;9.182;2023-09-08T11:29:08;33.30;99.90
4314;DHT22;2170;48.794;9.182;2023-09-08T11:32:17;33.00;99.90
4314;DHT22;2170;48.794;9.182;2023-09-08T11:35:23;32.90;99.90
4314;DHT22;2170;48.794;9.182;2023-09-08T11:38:06;33.30;99.90
4314;DHT22;2170;48.794;9.182;2023-09-08T11:40:55;33.50;99.90
4314;DHT22;2170;48.794;9.182;2023-09-08T11:46:45;33.20;99.00
4314;DHT22;2170;48.794;9.182;2023-09-08T11:49:53;33.60;98.90
4314;DHT22;2170;48.794;9.182;2023-09-08T11:52:25;33.30;99.00
4314;DHT22;2170;48.794;9.182;2023-09-08T11:55:00;33.10;99.10
4314;DHT22;2170;48.794;9.182;2023-09-08T12:00:33;32.40;99.80
4314;DHT22;2170;48.794;9.182;2023-09-08T12:03:36;33.30;98.50
4314;DHT22;2170;48.794;9.182;2023-09-08T12:06:31;34.00;97.60
4314;DHT22;2170;48.794;9.182;2023-09-08T12:09:03;34.40;96.00
4314;DHT22;2170;48.794;9.182;2023-09-08T12:11:34;34.40;96.10
4314;DHT22;2170;48.794;9.182;2023-09-08T12:14:12;33.70;96.70
4314;DHT22;2170;48.794;9.182;2023-09-08T12:16:49;33.40;96.90
4314;DHT22;2170;48.794;9.182;2023-09-08T12:19:45;33.20;96.70
4314;DHT22;2170;48.794;9.182;2023-09-08T12:22:25;34.50;95.10
4314;DHT22;2170;48.794;9.182;2023-09-08T12:25:08;34.90;94.20
4314;DHT22;2170;48.794;9.182;2023-09-08T12:27:42;35.20;93.40
4314;DHT22;2170;48.794;9.182;2023-09-08T12:30:17;35.20;93.50
4314;DHT22;2170;48.794;9.182;2023-09-08T12:32:48;34.30;94.10
4314;DHT22;2170;48.794;9.182;2023-09-08T12:35:26;35.10;93.00
4314;DHT22;2170;48.794;9.182;2023-09-08T12:37:57;35.10;93.30
4314;DHT22;2170;48.794;9.182;2023-09-08T12:40:32;35.30;92.20
4314;DHT22;2170;48.794;9.182;2023-09-08T12:43:04;34.80;92.40
4314;DHT22;2170;48.794;9.182;2023-09-08T12:45:42;35.10;92.30
4314;DHT22;2170;48.794;9.182;2023-09-08T12:48:17;35.50;91.20
4314;DHT22;2170;48.794;9.182;2023-09-08T12:50:51;35.50;91.10
4314;DHT22;2170;48.794;9.182;2023-09-08T12:53:20;35.60;90.80
4314;DHT22;2170;48.794;9.182;2023-09-08T12:55:54;35.70;90.80
4314;DHT22;2170;48.794;9.182;2023-09-08T12:58:24;35.60;90.40
4314;DHT22;2170;48.794;9.182;2023-09-08T13:00:56;35.50;90.30
4314;DHT22;2170;48.794;9.182;2023-09-08T13:03:29;35.40;89.30
4314;DHT22;2170;48.794;9.182;2023-09-08T13:06:05;35.40;90.00
4314;DHT22;2170;48.794;9.182;2023-09-08T13:08:37;34.20;90.90
4314;DHT22;2170;48.794;9.182;2023-09-08T13:11:11;34.50;90.80
4314;DHT22;2170;48.794;9.182;2023-09-08T13:13:40;34.50;90.50
4314;DHT22;2170;48.794;9.182;2023-09-08T13:18:43;34.60;89.70
4314;DHT22;2170;48.794;9.182;2023-09-08T13:21:34;34.30;90.00
4314;DHT22;2170;48.794;9.182;2023-09-08T13:24:11;34.70;90.20
4314;DHT22;2170;48.794;9.182;2023-09-08T13:26:53;34.20;89.70
4314;DHT22;2170;48.794;9.182;2023-09-08T13:29:47;34.60;90.00
4314;DHT22;2170;48.794;9.182;2023-09-08T13:32:26;34.80;90.20
4314;DHT22;2170;48.794;9.182;2023-09-08T13:37:43;35.70;85.60
4314;DHT22;2170;48.794;9.182;2023-09-08T13:40:17;35.70;85.90
4314;DHT22;2170;48.794;9.182;2023-09-08T13:43:17;35.70;86.10
4314;DHT22;2170;48.794;9.182;2023-09-08T13:46:03;35.70;85.20
4314;DHT22;2170;48.794;9.182;2023-09-08T13:48:47;35.80;83.80
4314;DHT22;2170;48.794;9.182;2023-09-08T13:54:33;36.10;84.20
4314;DHT22;2170;48.794;9.182;2023-09-08T13:57:06;35.60;83.00
4314;DHT22;2170;48.794;9.182;2023-09-08T13:59:42;36.00;82.10
4314;DHT22;2170;48.794;9.182;2023-09-08T14:02:13;36.00;82.30
4314;DHT22;2170;48.794;9.182;2023-09-08T14:04:45;35.00;82.60
4314;DHT22;2170;48.794;9.182;2023-09-08T14:07:20;35.00;83.10
4314;DHT22;2170;48.794;9.182;2023-09-08T14:09:53;35.20;82.50
4314;DHT22;2170;48.794;9.182;2023-09-08T14:12:24;35.40;81.90
4314;DHT22;2170;48.794;9.182;2023-09-08T14:14:57;35.70;81.60
4314;DHT22;2170;48.794;9.182;2023-09-08T14:17:28;35.80;80.70
4314;DHT22;2170;48.794;9.182;2023-09-08T14:20:05;35.40;80.30
4314;DHT22;2170;48.794;9.182;2023-09-08T14:22:42;35.50;79.70
4314;DHT22;2170;48.794;9.182;2023-09-08T14:25:14;35.70;80.10
4314;DHT22;2170;48.794;9.182;2023-09-08T14:27:52;35.10;81.30
4314;DHT22;2170;48.794;9.182;2023-09-08T14:30:37;35.20;80.50
4314;DHT22;2170;48.794;9.182;2023-09-08T14:33:10;35.20;80.50
4314;DHT22;2170;48.794;9.182;2023-09-08T14:35:45;35.50;79.90
4314;DHT22;2170;48.794;9.182;2023-09-08T14:38:22;35.60;78.70
4314;DHT22;2170;48.794;9.182;2023-09-08T14:41:07;35.60;79.20
4314;DHT22;2170;48.794;9.182;2023-09-08T14:43:42;34.70;79.20
4314;DHT22;2170;48.794;9.182;2023-09-08T14:46:22;34.60;80.00
4314;DHT22;2170;48.794;9.182;2023-09-08T14:49:06;35.40;78.30
4314;DHT22;2170;48.794;9.182;2023-09-08T14:51:44;36.00;77.20
4314;DHT22;2170;48.794;9.182;2023-09-08T14:54:13;36.00;75.60
4314;DHT22;2170;48.794;9.182;2023-09-08T14:56:50;36.30;75.20
4314;DHT22;2170;48.794;9.182;2023-09-08T14:59:34;36.30;75.90
4314;DHT22;2170;48.794;9.182;2023-09-08T15:02:13;36.20;75.10
4314;DHT22;2170;48.794;9.182;2023-09-08T15:04:53;34.60;78.80
4314;DHT22;2170;48.794;9.182;2023-09-08T15:07:46;34.70;79.20
4314;DHT22;2170;48.794;9.182;2023-09-08T15:10:34;34.70;78.10
4314;DHT22;2170;48.794;9.182;2023-09-08T15:13:20;35.00;79.60
4314;DHT22;2170;48.794;9.182;2023-09-08T15:16:23;35.00;79.00
4314;DHT22;2170;48.794;9.182;2023-09-08T15:19:22;35.80;77.70
4314;DHT22;2170;48.794;9.182;2023-09-08T15:22:03;35.00;77.90
4314;DHT22;2170;48.794;9.182;2023-09-08T15:27:48;35.50;75.80
4314;DHT22;2170;48.794;9.182;2023-09-08T15:30:27;35.00;76.80
4314;DHT22;2170;48.794;9.182;2023-09-08T15:33:01;34.80;77.20
4314;DHT22;2170;48.794;9.182;2023-09-08T15:35:38;34.60;77.80
4314;DHT22;2170;48.794;9.182;2023-09-08T15:38:27;34.60;76.70
4314;DHT22;2170;48.794;9.182;2023-09-08T15:41:22;35.10;76.40
4314;DHT22;2170;48.794;9.182;2023-09-08T15:47:04;36.10;74.40
4314;DHT22;2170;48.794;9.182;2023-09-08T15:49:51;36.10;73.60
4314;DHT22;2170;48.794;9.182;2023-09-08T15:52:46;35.80;74.40
4314;DHT22;2170;48.794;9.182;2023-09-08T15:55:31;35.90;72.20
4314;DHT22;2170;48.794;9.182;2023-09-08T15:58:16;36.00;71.50
4314;DHT22;2170;48.794;9.182;2023-09-08T16:00:58;35.40;73.40
4314;DHT22;2170;48.794;9.182;2023-09-08T16:03:45;35.50;73.50
4314;DHT22;2170;48.794;9.182;2023-09-08T16:06:45;35.50;74.40
4314;DHT22;2170;48.794;9.182;2023-09-08T16:09:40;35.30;76.50
4314;DHT22;2170;48.794;9.182;2023-09-08T16:12:27;34.40;77.80
4314;DHT22;2170;48.794;9.182;2023-09-08T16:15:17;34.50;77.90
4314;DHT22;2170;48.794;9.182;2023-09-08T16:18:08;34.40;78.60
4314;DHT22;2170;48.794;9.182;2023-09-08T16:20:52;34.30;79.50
4314;DHT22;2170;48.794;9.182;2023-09-08T16:23:47;34.10;78.60
4314;DHT22;2170;48.794;9.182;2023-09-08T16:26:37;34.10;78.80
4314;DHT22;2170;48.794;9.182;2023-09-08T16:29:26;34.10;79.10
4314;DHT22;2170;48.794;9.182;2023-09-08T16:32:11;34.10;79.10
4314;DHT22;2170;48.794;9.182;2023-09-08T16:34:54;34.20;79.10
4314;DHT22;2170;48.794;9.182;2023-09-08T16:37:30;33.70;79.70
4314;DHT22;2170;48.794;9.182;2023-09-08T16:40:17;33.10;80.70
4314;DHT22;2170;48.794;9.182;2023-09-08T16:43:21;33.10;81.10
4314;DHT22;2170;48.794;9.182;2023-09-08T16:49:06;31.80;81.80
4314;DHT22;2170;48.794;9.182;2023-09-08T16:52:12;32.00;82.40
4314;DHT22;2170;48.794;9.182;2023-09-08T16:55:25;32.00;82.20
4314;DHT22;2170;48.794;9.182;2023-09-08T16:58:15;32.10;82.80
4314;DHT22;2170;48.794;9.182;2023-09-08T17:01:20;32.00;82.30
4314;DHT22;2170;48.794;9.182;2023-09-08T17:06:54;31.70;83.30
4314;DHT22;2170;48.794;9.182;2023-09-08T17:09:36;31.70;83.80
4314;DHT22;2170;48.794;9.182;2023-09-08T17:12:22;31.70;84.20
4314;DHT22;2170;48.794;9.182;2023-09-08T17:15:42;31.40;84.80
4314;DHT22;2170;48.794;9.182;2023-09-08T17:18:35;31.30;85.60
4314;DHT22;2170;48.794;9.182;2023-09-08T17:21:21;31.20;87.00
4314;DHT22;2170;48.794;9.182;2023-09-08T17:24:17;31.00;87.30
4314;DHT22;2170;48.794;9.182;2023-09-08T17:27:26;30.80;88.60
4314;DHT22;2170;48.794;9.182;2023-09-08T17:30:28;30.60;89.70
4314;DHT22;2170;48.794;9.182;2023-09-08T17:33:15;30.40;90.40
4314;DHT22;2170;48.794;9.182;2023-09-08T17:36:21;30.20;90.90
4314;DHT22;2170;48.794;9.182;2023-09-08T17:39:26;30.10;91.50
4314;DHT22;2170;48.794;9.182;2023-09-08T17:45:23;29.70;92.30
4314;DHT22;2170;48.794;9.182;2023-09-08T17:48:31;29.60;92.50
4314;DHT22;2170;48.794;9.182;2023-09-08T17:54:53;29.20;93.10
4314;DHT22;2170;48.794;9.182;2023-09-08T17:59:10;29.10;93.60
4314;DHT22;2170;48.794;9.182;2023-09-08T18:07:22;28.60;94.80
4314;DHT22;2170;48.794;9.182;2023-09-08T18:10:07;28.40;95.10
4314;DHT22;2170;48.794;9.182;2023-09-08T18:12:56;28.30;95.40
4314;DHT22;2170;48.794;9.182;2023-09-08T18:15:33;28.20;95.90
4314;DHT22;2170;48.794;9.182;2023-09-08T18:21:39;27.90;96.80
4314;DHT22;2170;48.794;9.182;2023-09-08T18:24:22;27.80;97.20
4314;DHT22;2170;48.794;9.182;2023-09-08T18:30:40;27.50;98.20
4314;DHT22;2170;48.794;9.182;2023-09-08T18:33:50;27.40;98.80
4314;DHT22;2170;48.794;9.182;2023-09-08T18:40:14;27.20;99.70